createdAt,value
2023-03-16T00:00:53.513Z,1003.14
2023-03-16T00:01:53.523Z,1003.12
2023-03-16T00:02:53.614Z,1003.18
2023-03-16T00:03:53.500Z,1003.19
2023-03-16T00:04:53.545Z,1003.23
2023-03-16T00:05:53.510Z,1003.17
2023-03-16T00:06:53.458Z,1003.18
2023-03-16T00:07:53.438Z,1003.16
2023-03-16T00:08:53.437Z,1003.18
2023-03-16T00:09:53.415Z,1003.21
2023-03-16T00:10:53.465Z,1003.13
2023-03-16T00:11:53.401Z,1003.16
2023-03-16T00:12:53.395Z,1003.21
2023-03-16T00:13:53.375Z,1003.15
2023-03-16T00:14:53.357Z,1003.15
2023-03-16T00:15:53.475Z,1003.15
2023-03-16T00:16:53.344Z,1003.14
2023-03-16T00:17:53.343Z,1003.24
2023-03-16T00:18:53.318Z,1003.26
2023-03-16T00:19:53.317Z,1003.29
2023-03-16T00:20:53.351Z,1003.22
2023-03-16T00:21:53.329Z,1003.29
2023-03-16T00:22:53.348Z,1003.22
2023-03-16T00:23:53.256Z,1003.29
2023-03-16T00:24:53.244Z,1003.23
2023-03-16T00:25:53.244Z,1003.20
2023-03-16T00:26:53.224Z,1003.22
2023-03-16T00:27:53.256Z,1003.19
2023-03-16T00:28:53.197Z,1003.24
2023-03-16T00:29:53.164Z,1003.22
2023-03-16T00:30:53.189Z,1003.19
2023-03-16T00:31:53.210Z,1003.25
2023-03-16T00:32:53.214Z,1003.16
2023-03-16T00:33:53.184Z,1003.12
2023-03-16T00:34:53.140Z,1003.16
2023-03-16T00:35:53.138Z,1003.07
2023-03-16T00:36:53.106Z,1003.07
2023-03-16T00:37:53.135Z,1003.05
2023-03-16T00:38:53.068Z,1003.14
2023-03-16T00:39:53.103Z,1003.19
2023-03-16T00:40:53.138Z,1003.17
2023-03-16T00:41:53.041Z,1003.18
2023-03-16T00:42:53.064Z,1003.19
2023-03-16T00:43:53.030Z,1003.08
2023-03-16T00:44:53.038Z,1003.10
2023-03-16T00:45:53.069Z,1003.07
2023-03-16T00:46:52.974Z,1003.12
2023-03-16T00:47:53.097Z,1003.07
2023-03-16T00:48:52.956Z,1003.13
2023-03-16T00:49:52.966Z,1003.00
2023-03-16T00:50:52.943Z,1003.03
2023-03-16T00:51:52.967Z,1003.06
2023-03-16T00:52:52.907Z,1003.07
2023-03-16T00:53:52.887Z,1003.05
2023-03-16T00:54:52.925Z,1003.07
2023-03-16T00:55:52.878Z,1003.06
2023-03-16T00:56:52.911Z,1003.07
2023-03-16T00:57:52.832Z,1003.02
2023-03-16T00:58:52.836Z,1003.06
2023-03-16T00:59:52.952Z,1003.04
2023-03-16T01:00:52.839Z,1003.05
2023-03-16T01:01:53.007Z,1003.06
2023-03-16T01:02:52.896Z,1003.09
2023-03-16T01:03:52.778Z,1003.05
2023-03-16T01:04:52.832Z,1003.04
2023-03-16T01:05:52.763Z,1003.04
2023-03-16T01:06:52.795Z,1003.03
2023-03-16T01:07:52.753Z,1002.95
2023-03-16T01:08:52.905Z,1002.95
2023-03-16T01:09:52.711Z,1002.94
2023-03-16T01:10:52.722Z,1002.92
2023-03-16T01:11:52.676Z,1002.96
2023-03-16T01:12:52.675Z,1003.00
2023-03-16T01:13:52.710Z,1002.96
2023-03-16T01:14:52.682Z,1003.00
2023-03-16T01:15:52.698Z,1003.02
2023-03-16T01:16:52.659Z,1002.97
2023-03-16T01:17:52.597Z,1003.03
2023-03-16T01:18:52.614Z,1002.99
2023-03-16T01:19:52.631Z,1003.02
2023-03-16T01:20:52.569Z,1002.98
2023-03-16T01:21:52.552Z,1002.97
2023-03-16T01:22:52.635Z,1002.97
2023-03-16T01:23:52.533Z,1002.93
2023-03-16T01:24:52.523Z,1002.94
2023-03-16T01:25:52.584Z,1002.89
2023-03-16T01:26:52.526Z,1002.90
2023-03-16T01:27:52.487Z,1002.84
2023-03-16T01:28:52.485Z,1002.97
2023-03-16T01:29:52.479Z,1002.85
2023-03-16T01:30:52.529Z,1002.90
2023-03-16T01:31:52.489Z,1002.91
2023-03-16T01:32:52.503Z,1002.99
2023-03-16T01:33:52.412Z,1002.95
2023-03-16T01:34:52.422Z,1002.96
2023-03-16T01:35:52.435Z,1002.91
2023-03-16T01:36:52.579Z,1002.88
2023-03-16T01:37:52.377Z,1002.94
2023-03-16T01:38:52.405Z,1002.85
2023-03-16T01:39:52.344Z,1002.86
2023-03-16T01:40:52.337Z,1002.78
2023-03-16T01:41:52.367Z,1002.79
2023-03-16T01:42:52.303Z,1002.76
2023-03-16T01:43:52.304Z,1002.75
2023-03-16T01:44:52.334Z,1002.76
2023-03-16T01:45:52.315Z,1002.74
2023-03-16T01:46:52.266Z,1002.75
2023-03-16T01:47:52.293Z,1002.74
2023-03-16T01:48:52.264Z,1002.74
2023-03-16T01:49:52.227Z,1002.71
2023-03-16T01:50:52.221Z,1002.74
2023-03-16T01:51:52.227Z,1002.66
2023-03-16T01:52:52.197Z,1002.71
2023-03-16T01:53:52.389Z,1002.68
2023-03-16T01:54:52.261Z,1002.63
2023-03-16T01:55:52.194Z,1002.59
2023-03-16T01:56:52.187Z,1002.64
2023-03-16T01:57:52.167Z,1002.56
2023-03-16T01:58:52.154Z,1002.55
2023-03-16T01:59:52.168Z,1002.57
2023-03-16T02:00:52.115Z,1002.58
2023-03-16T02:01:52.263Z,1002.58
2023-03-16T02:02:52.108Z,1002.45
2023-03-16T02:03:52.078Z,1002.51
2023-03-16T02:04:52.126Z,1002.46
2023-03-16T02:05:52.044Z,1002.47
2023-03-16T02:06:52.027Z,1002.38
2023-03-16T02:07:52.017Z,1002.44
2023-03-16T02:08:52.047Z,1002.48
2023-03-16T02:09:52.015Z,1002.56
2023-03-16T02:10:52.054Z,1002.63
2023-03-16T02:11:51.970Z,1002.70
2023-03-16T02:12:51.990Z,1002.72
2023-03-16T02:13:51.974Z,1002.69
2023-03-16T02:14:51.939Z,1002.80
2023-03-16T02:15:52.015Z,1002.73
2023-03-16T02:16:51.997Z,1002.76
2023-03-16T02:17:51.898Z,1002.76
2023-03-16T02:18:51.986Z,1002.71
2023-03-16T02:19:52.104Z,1002.72
2023-03-16T02:20:51.870Z,1002.73
2023-03-16T02:21:52.572Z,1002.70
2023-03-16T02:22:51.911Z,1002.68
2023-03-16T02:23:51.852Z,1002.65
2023-03-16T02:24:51.824Z,1002.61
2023-03-16T02:25:51.834Z,1002.59
2023-03-16T02:26:51.814Z,1002.52
2023-03-16T02:27:51.809Z,1002.56
2023-03-16T02:28:51.857Z,1002.53
2023-03-16T02:29:51.777Z,1002.50
2023-03-16T02:30:51.805Z,1002.41
2023-03-16T02:31:51.755Z,1002.37
2023-03-16T02:32:51.759Z,1002.40
2023-03-16T02:33:51.738Z,1002.43
2023-03-16T02:34:51.831Z,1002.35
2023-03-16T02:35:51.727Z,1002.41
2023-03-16T02:36:51.687Z,1002.38
2023-03-16T02:37:51.671Z,1002.38
2023-03-16T02:38:51.696Z,1002.37
2023-03-16T02:39:51.648Z,1002.34
2023-03-16T02:40:51.869Z,1002.35
2023-03-16T02:41:51.633Z,1002.36
2023-03-16T02:42:51.610Z,1002.39
2023-03-16T02:43:51.608Z,1002.40
2023-03-16T02:44:51.595Z,1002.36
2023-03-16T02:45:51.590Z,1002.41
2023-03-16T02:46:51.647Z,1002.42
2023-03-16T02:47:51.560Z,1002.39
2023-03-16T02:48:51.580Z,1002.35
2023-03-16T02:49:51.532Z,1002.33
2023-03-16T02:50:51.521Z,1002.33
2023-03-16T02:51:51.592Z,1002.36
2023-03-16T02:52:51.521Z,1002.32
2023-03-16T02:53:51.577Z,1002.39
2023-03-16T02:54:51.488Z,1002.32
2023-03-16T02:55:51.511Z,1002.31
2023-03-16T02:56:51.452Z,1002.28
2023-03-16T02:57:51.490Z,1002.33
2023-03-16T02:58:51.464Z,1002.27
2023-03-16T02:59:51.448Z,1002.28
2023-03-16T03:00:51.459Z,1002.22
2023-03-16T03:01:51.508Z,1002.22
2023-03-16T03:02:51.419Z,1002.17
2023-03-16T03:03:51.465Z,1002.18
2023-03-16T03:04:51.381Z,1002.14
2023-03-16T03:05:51.636Z,1002.14
2023-03-16T03:06:51.392Z,1002.07
2023-03-16T03:07:51.330Z,1002.19
2023-03-16T03:08:51.319Z,1002.18
2023-03-16T03:09:51.376Z,1002.19
2023-03-16T03:10:51.290Z,1002.24
2023-03-16T03:11:51.302Z,1002.28
2023-03-16T03:12:51.288Z,1002.20
2023-03-16T03:13:51.268Z,1002.25
2023-03-16T03:14:51.297Z,1002.19
2023-03-16T03:15:51.293Z,1002.20
2023-03-16T03:16:51.236Z,1002.19
2023-03-16T03:17:51.250Z,1002.13
2023-03-16T03:18:51.213Z,1002.21
2023-03-16T03:19:51.209Z,1002.09
2023-03-16T03:20:51.197Z,1002.15
2023-03-16T03:21:51.279Z,1002.22
2023-03-16T03:22:51.197Z,1002.10
2023-03-16T03:23:51.150Z,1002.08
2023-03-16T03:24:51.130Z,1002.11
2023-03-16T03:25:51.178Z,1002.09
2023-03-16T03:26:51.155Z,1002.11
2023-03-16T03:27:51.196Z,1002.07
2023-03-16T03:28:51.090Z,1002.11
2023-03-16T03:29:51.107Z,1002.09
2023-03-16T03:30:51.070Z,1002.09
2023-03-16T03:31:51.070Z,1002.11
2023-03-16T03:32:51.133Z,1002.13
2023-03-16T03:33:51.033Z,1002.12
2023-03-16T03:34:51.015Z,1002.11
2023-03-16T03:35:51.054Z,1002.11
2023-03-16T03:36:50.993Z,1002.12
2023-03-16T03:37:51.000Z,1002.16
2023-03-16T03:38:51.030Z,1002.16
2023-03-16T03:39:50.981Z,1002.18
2023-03-16T03:40:50.965Z,1002.09
2023-03-16T03:41:50.964Z,1002.15
2023-03-16T03:42:50.953Z,1002.09
2023-03-16T03:43:50.925Z,1002.04
2023-03-16T03:44:50.933Z,1001.98
2023-03-16T03:45:50.966Z,1002.03
2023-03-16T03:46:50.971Z,1002.04
2023-03-16T03:47:50.893Z,1002.10
2023-03-16T03:48:50.866Z,1002.10
2023-03-16T03:49:50.887Z,1002.05
2023-03-16T03:50:50.855Z,1002.16
2023-03-16T03:51:50.835Z,1002.13
2023-03-16T03:52:50.817Z,1002.16
2023-03-16T03:53:50.815Z,1002.14
2023-03-16T03:54:50.810Z,1002.15
2023-03-16T03:55:50.821Z,1002.08
2023-03-16T03:56:50.772Z,1002.19
2023-03-16T03:57:50.785Z,1002.15
2023-03-16T03:58:50.756Z,1002.11
2023-03-16T03:59:50.754Z,1002.06
2023-03-16T04:00:50.762Z,1002.06
2023-03-16T04:01:50.782Z,1001.96
2023-03-16T04:02:50.820Z,1002.09
2023-03-16T04:03:50.717Z,1002.08
2023-03-16T04:04:50.690Z,1002.06
2023-03-16T04:05:50.688Z,1002.13
2023-03-16T04:06:50.730Z,1002.10
2023-03-16T04:07:50.666Z,1002.09
2023-03-16T04:08:50.644Z,1002.04
2023-03-16T04:09:50.679Z,1001.98
2023-03-16T04:10:50.633Z,1001.94
2023-03-16T04:11:50.600Z,1001.87
2023-03-16T04:12:50.649Z,1001.95
2023-03-16T04:13:50.603Z,1002.00
2023-03-16T04:14:50.671Z,1002.04
2023-03-16T04:15:50.566Z,1002.08
2023-03-16T04:16:50.607Z,1002.10
2023-03-16T04:17:50.542Z,1002.06
2023-03-16T04:18:50.568Z,1002.11
2023-03-16T04:19:50.528Z,1002.16
2023-03-16T04:20:50.558Z,1002.13
2023-03-16T04:21:50.519Z,1002.01
2023-03-16T04:22:50.489Z,1002.10
2023-03-16T04:23:50.752Z,1002.00
2023-03-16T04:24:50.503Z,1001.99
2023-03-16T04:25:50.472Z,1001.98
2023-03-16T04:26:50.453Z,1001.92
2023-03-16T04:27:50.428Z,1002.00
2023-03-16T04:28:50.414Z,1002.08
2023-03-16T04:29:50.411Z,1002.10
2023-03-16T04:30:50.545Z,1002.07
2023-03-16T04:31:50.395Z,1002.07
2023-03-16T04:32:50.518Z,1002.05
2023-03-16T04:33:50.388Z,1001.99
2023-03-16T04:34:50.360Z,1002.02
2023-03-16T04:35:50.549Z,1001.99
2023-03-16T04:36:50.341Z,1001.91
2023-03-16T04:37:50.396Z,1001.91
2023-03-16T04:38:50.312Z,1001.88
2023-03-16T04:39:50.297Z,1001.93
2023-03-16T04:40:50.314Z,1001.92
2023-03-16T04:41:50.297Z,1001.86
2023-03-16T04:42:50.272Z,1001.82
2023-03-16T04:43:50.301Z,1001.85
2023-03-16T04:44:50.295Z,1001.86
2023-03-16T04:45:50.305Z,1001.82
2023-03-16T04:46:50.218Z,1001.83
2023-03-16T04:47:50.257Z,1001.83
2023-03-16T04:48:50.209Z,1001.84
2023-03-16T04:49:50.189Z,1001.79
2023-03-16T04:50:50.202Z,1001.80
2023-03-16T04:51:50.154Z,1001.80
2023-03-16T04:52:50.176Z,1001.80
2023-03-16T04:53:50.177Z,1001.77
2023-03-16T04:54:50.144Z,1001.81
2023-03-16T04:55:50.148Z,1001.89
2023-03-16T04:56:50.128Z,1001.88
2023-03-16T04:57:50.112Z,1001.92
2023-03-16T04:58:50.088Z,1001.78
2023-03-16T04:59:50.141Z,1001.85
2023-03-16T05:00:50.091Z,1001.83
2023-03-16T05:01:50.121Z,1001.88
2023-03-16T05:02:50.044Z,1001.90
2023-03-16T05:03:50.050Z,1001.92
2023-03-16T05:04:50.065Z,1001.94
2023-03-16T05:05:50.130Z,1001.91
2023-03-16T05:06:49.999Z,1001.97
2023-03-16T05:07:50.019Z,1001.94
2023-03-16T05:08:50.063Z,1001.95
2023-03-16T05:09:49.977Z,1001.91
2023-03-16T05:10:49.988Z,1001.93
2023-03-16T05:11:49.976Z,1001.95
2023-03-16T05:12:49.937Z,1001.92
2023-03-16T05:13:49.935Z,1001.97
2023-03-16T05:14:49.906Z,1001.96
2023-03-16T05:15:50.014Z,1001.91
2023-03-16T05:16:49.909Z,1001.89
2023-03-16T05:17:49.888Z,1001.85
2023-03-16T05:18:49.870Z,1001.88
2023-03-16T05:19:49.861Z,1001.89
2023-03-16T05:20:49.861Z,1001.86
2023-03-16T05:21:49.855Z,1001.85
2023-03-16T05:22:49.819Z,1001.87
2023-03-16T05:23:49.907Z,1001.89
2023-03-16T05:24:49.800Z,1001.91
2023-03-16T05:25:49.838Z,1001.89
2023-03-16T05:26:49.777Z,1001.90
2023-03-16T05:27:49.822Z,1001.95
2023-03-16T05:28:49.804Z,1001.92
2023-03-16T05:29:49.746Z,1001.90
2023-03-16T05:30:49.756Z,1001.93
2023-03-16T05:31:49.720Z,1001.88
2023-03-16T05:32:49.766Z,1001.95
2023-03-16T05:33:49.735Z,1001.99
2023-03-16T05:34:49.697Z,1001.92
2023-03-16T05:35:49.767Z,1001.94
2023-03-16T05:36:49.676Z,1001.92
2023-03-16T05:37:49.648Z,1001.90
2023-03-16T05:38:49.638Z,1001.93
2023-03-16T05:39:49.843Z,1001.93
2023-03-16T05:40:49.714Z,1001.94
2023-03-16T05:41:49.625Z,1001.86
2023-03-16T05:42:49.610Z,1001.89
2023-03-16T05:43:49.597Z,1001.82
2023-03-16T05:44:49.583Z,1001.86
2023-03-16T05:45:49.591Z,1001.80
2023-03-16T05:46:49.617Z,1001.80
2023-03-16T05:47:49.574Z,1001.76
2023-03-16T05:48:49.567Z,1001.71
2023-03-16T05:49:49.659Z,1001.71
2023-03-16T05:50:49.556Z,1001.68
2023-03-16T05:51:49.524Z,1001.73
2023-03-16T05:52:49.520Z,1001.69
2023-03-16T05:53:49.495Z,1001.76
2023-03-16T05:54:49.511Z,1001.71
2023-03-16T05:55:49.499Z,1001.73
2023-03-16T05:56:49.741Z,1001.71
2023-03-16T05:57:49.454Z,1001.70
2023-03-16T05:58:49.472Z,1001.72
2023-03-16T05:59:49.423Z,1001.68
2023-03-16T06:00:49.391Z,1001.69
2023-03-16T06:01:49.437Z,1001.63
2023-03-16T06:02:49.468Z,1001.70
2023-03-16T06:03:49.431Z,1001.70
2023-03-16T06:04:49.352Z,1001.72
2023-03-16T06:05:49.353Z,1001.70
2023-03-16T06:06:49.335Z,1001.73
2023-03-16T06:07:49.356Z,1001.70
2023-03-16T06:08:49.351Z,1001.76
2023-03-16T06:09:49.312Z,1001.78
2023-03-16T06:10:49.291Z,1001.79
2023-03-16T06:11:49.274Z,1001.86
2023-03-16T06:12:49.267Z,1001.75
2023-03-16T06:13:49.320Z,1001.76
2023-03-16T06:14:49.234Z,1001.81
2023-03-16T06:15:49.244Z,1001.76
2023-03-16T06:16:49.233Z,1001.77
2023-03-16T06:17:49.274Z,1001.78
2023-03-16T06:18:49.180Z,1001.78
2023-03-16T06:19:49.212Z,1001.83
2023-03-16T06:20:49.168Z,1001.82
2023-03-16T06:21:49.192Z,1001.87
2023-03-16T06:22:49.177Z,1001.83
2023-03-16T06:23:49.134Z,1001.76
2023-03-16T06:24:49.132Z,1001.81
2023-03-16T06:25:49.151Z,1001.78
2023-03-16T06:26:49.106Z,1001.75
2023-03-16T06:27:49.092Z,1001.84
2023-03-16T06:28:49.106Z,1001.86
2023-03-16T06:29:49.075Z,1001.81
2023-03-16T06:30:49.063Z,1001.85
2023-03-16T06:31:49.144Z,1001.84
2023-03-16T06:32:49.136Z,1001.87
2023-03-16T06:33:49.037Z,1001.81
2023-03-16T06:34:49.014Z,1001.85
2023-03-16T06:35:49.034Z,1001.87
2023-03-16T06:36:49.017Z,1001.83
2023-03-16T06:37:49.161Z,1001.84
2023-03-16T06:38:48.955Z,1001.79
2023-03-16T06:39:48.946Z,1001.74
2023-03-16T06:40:48.957Z,1001.76
2023-03-16T06:41:48.955Z,1001.78
2023-03-16T06:42:49.641Z,1001.78
2023-03-16T06:43:48.916Z,1001.76
2023-03-16T06:44:48.898Z,1001.72
2023-03-16T06:45:48.926Z,1001.77
2023-03-16T06:46:48.897Z,1001.75
2023-03-16T06:47:48.864Z,1001.74
2023-03-16T06:48:48.870Z,1001.77
2023-03-16T06:49:48.853Z,1001.70
2023-03-16T06:50:48.839Z,1001.77
2023-03-16T06:51:48.805Z,1001.79
2023-03-16T06:52:48.800Z,1001.78
2023-03-16T06:53:48.778Z,1001.79
2023-03-16T06:54:48.831Z,1001.83
2023-03-16T06:55:48.768Z,1001.79
2023-03-16T06:56:48.824Z,1001.74
2023-03-16T06:57:48.741Z,1001.69
2023-03-16T06:58:48.729Z,1001.77
2023-03-16T06:59:48.717Z,1001.72
2023-03-16T07:00:48.790Z,1001.74
2023-03-16T07:01:48.775Z,1001.67
2023-03-16T07:02:48.689Z,1001.68
2023-03-16T07:03:48.687Z,1001.72
2023-03-16T07:04:48.749Z,1001.76
2023-03-16T07:05:48.661Z,1001.74
2023-03-16T07:06:48.684Z,1001.82
2023-03-16T07:07:48.653Z,1001.77
2023-03-16T07:08:48.620Z,1001.79
2023-03-16T07:09:48.626Z,1001.78
2023-03-16T07:10:48.604Z,1001.82
2023-03-16T07:11:48.625Z,1001.85
2023-03-16T07:12:48.608Z,1001.80
2023-03-16T07:13:48.547Z,1001.83
2023-03-16T07:14:51.780Z,1001.79
2023-03-16T07:15:48.535Z,1001.85
2023-03-16T07:16:48.576Z,1001.82
2023-03-16T07:17:48.534Z,1001.80
2023-03-16T07:18:48.620Z,1001.87
2023-03-16T07:19:48.477Z,1001.86
2023-03-16T07:20:48.474Z,1001.81
2023-03-16T07:21:48.473Z,1001.85
2023-03-16T07:22:48.457Z,1001.85
2023-03-16T07:23:48.435Z,1001.83
2023-03-16T07:24:48.447Z,1001.81
2023-03-16T07:25:48.413Z,1001.77
2023-03-16T07:26:48.402Z,1001.79
2023-03-16T07:27:48.404Z,1001.79
2023-03-16T07:28:48.374Z,1001.84
2023-03-16T07:29:48.493Z,1001.86
2023-03-16T07:31:49.492Z,1001.83
2023-03-16T07:32:48.395Z,1001.83
2023-03-16T07:33:48.328Z,1001.81
2023-03-16T07:34:48.306Z,1001.84
2023-03-16T07:35:48.367Z,1001.82
2023-03-16T07:36:48.363Z,1001.76
2023-03-16T07:37:48.312Z,1001.77
2023-03-16T07:38:48.288Z,1001.80
2023-03-16T07:39:48.252Z,1001.84
2023-03-16T07:40:48.243Z,1001.80
2023-03-16T07:41:48.415Z,1001.75
2023-03-16T07:42:48.247Z,1001.75
2023-03-16T07:43:48.255Z,1001.73
2023-03-16T07:44:49.486Z,1001.82
2023-03-16T07:45:48.259Z,1001.87
2023-03-16T07:46:48.243Z,1001.75
2023-03-16T07:47:48.177Z,1001.77
2023-03-16T07:48:48.146Z,1001.80
2023-03-16T07:49:48.150Z,1001.77
2023-03-16T07:50:48.164Z,1001.84
2023-03-16T07:51:48.124Z,1001.77
2023-03-16T07:52:48.151Z,1001.86
2023-03-16T07:53:48.088Z,1001.84
2023-03-16T07:54:48.094Z,1001.84
2023-03-16T07:55:48.334Z,1001.78
2023-03-16T07:56:49.668Z,1001.84
2023-03-16T07:57:48.188Z,1001.81
2023-03-16T07:58:48.063Z,1001.76
2023-03-16T07:59:48.027Z,1001.76
2023-03-16T08:00:48.066Z,1001.73
2023-03-16T08:01:48.114Z,1001.75
2023-03-16T08:02:48.036Z,1001.71
2023-03-16T08:03:48.101Z,1001.71
2023-03-16T08:04:48.093Z,1001.73
2023-03-16T08:05:47.969Z,1001.65
2023-03-16T08:06:47.963Z,1001.67
2023-03-16T08:07:47.938Z,1001.65
2023-03-16T08:08:47.971Z,1001.66
2023-03-16T08:09:47.982Z,1001.62
2023-03-16T08:10:47.924Z,1001.65
2023-03-16T08:11:47.899Z,1001.64
2023-03-16T08:12:48.002Z,1001.60
2023-03-16T08:13:47.869Z,1001.64
2023-03-16T08:14:47.870Z,1001.65
2023-03-16T08:15:48.239Z,1001.63
2023-03-16T08:16:47.838Z,1001.59
2023-03-16T08:17:47.879Z,1001.70
2023-03-16T08:18:47.838Z,1001.68
2023-03-16T08:19:47.828Z,1001.69
2023-03-16T08:20:47.784Z,1001.61
2023-03-16T08:22:00.798Z,1001.56
2023-03-16T08:22:48.760Z,1001.66
2023-03-16T08:23:47.755Z,1001.68
2023-03-16T08:24:47.740Z,1001.69
2023-03-16T08:25:47.737Z,1001.63
2023-03-16T08:26:47.741Z,1001.72
2023-03-16T08:27:47.715Z,1001.67
2023-03-16T08:28:47.751Z,1001.72
2023-03-16T08:29:47.725Z,1001.68
2023-03-16T08:30:47.799Z,1001.65
2023-03-16T08:31:47.665Z,1001.68
2023-03-16T08:32:47.723Z,1001.64
2023-03-16T08:33:47.736Z,1001.56
2023-03-16T08:34:47.612Z,1001.56
2023-03-16T08:35:47.620Z,1001.56
2023-03-16T08:36:47.592Z,1001.61
2023-03-16T08:37:47.617Z,1001.57
2023-03-16T08:39:03.730Z,1001.59
2023-03-16T08:39:48.574Z,1001.62
2023-03-16T08:40:47.550Z,1001.63
2023-03-16T08:41:47.533Z,1001.63
2023-03-16T08:42:47.527Z,1001.53
2023-03-16T08:43:47.565Z,1001.58
2023-03-16T08:44:47.559Z,1001.55
2023-03-16T08:45:47.510Z,1001.57
2023-03-16T08:46:47.559Z,1001.53
2023-03-16T08:47:47.476Z,1001.55
2023-03-16T08:48:47.605Z,1001.45
2023-03-16T08:49:47.454Z,1001.38
2023-03-16T08:50:47.493Z,1001.46
2023-03-16T08:51:47.430Z,1001.41
2023-03-16T08:52:47.404Z,1001.38
2023-03-16T08:53:47.427Z,1001.44
2023-03-16T08:55:01.872Z,1001.41
2023-03-16T08:55:48.410Z,1001.44
2023-03-16T08:56:47.372Z,1001.40
2023-03-16T08:57:47.342Z,1001.38
2023-03-16T08:58:47.353Z,1001.47
2023-03-16T08:59:47.346Z,1001.33
2023-03-16T09:00:49.116Z,1001.39
2023-03-16T09:01:47.385Z,1001.41
2023-03-16T09:02:47.334Z,1001.42
2023-03-16T09:03:47.393Z,1001.36
2023-03-16T09:04:47.345Z,1001.32
2023-03-16T09:05:47.253Z,1001.26
2023-03-16T09:06:50.896Z,1001.26
2023-03-16T09:07:48.999Z,1001.30
2023-03-16T09:08:47.234Z,1001.26
2023-03-16T09:09:47.221Z,1001.22
2023-03-16T09:10:47.216Z,1001.24
2023-03-16T09:11:47.192Z,1001.21
2023-03-16T09:12:47.256Z,1001.22
2023-03-16T09:13:47.216Z,1001.20
2023-03-16T09:14:47.154Z,1001.26
2023-03-16T09:15:47.186Z,1001.29
2023-03-16T09:16:47.153Z,1001.32
2023-03-16T09:17:47.131Z,1001.33
2023-03-16T09:18:47.147Z,1001.40
2023-03-16T09:19:51.555Z,1001.34
2023-03-16T09:20:47.106Z,1001.36
2023-03-16T09:21:47.525Z,1001.37
2023-03-16T09:22:47.102Z,1001.39
2023-03-16T09:23:47.054Z,1001.32
2023-03-16T09:24:47.111Z,1001.29
2023-03-16T09:25:47.047Z,1001.30
2023-03-16T09:26:47.045Z,1001.28
2023-03-16T09:27:47.009Z,1001.22
2023-03-16T09:28:47.036Z,1001.24
2023-03-16T09:29:47.037Z,1001.27
2023-03-16T09:30:46.985Z,1001.26
2023-03-16T09:31:47.047Z,1001.23
2023-03-16T09:32:46.988Z,1001.23
2023-03-16T09:33:46.984Z,1001.20
2023-03-16T09:34:46.931Z,1001.21
2023-03-16T09:35:46.996Z,1001.16
2023-03-16T09:36:46.942Z,1001.17
2023-03-16T09:38:04.845Z,1001.17
2023-03-16T09:38:47.880Z,1001.17
2023-03-16T09:39:46.920Z,1001.17
2023-03-16T09:40:47.325Z,1001.15
2023-03-16T09:41:46.869Z,1001.14
2023-03-16T09:42:46.849Z,1001.13
2023-03-16T09:43:46.820Z,1001.13
2023-03-16T09:44:46.831Z,1001.13
2023-03-16T09:45:46.802Z,1001.06
2023-03-16T09:46:46.887Z,1001.04
2023-03-16T09:47:46.778Z,1001.12
2023-03-16T09:48:46.776Z,1001.07
2023-03-16T09:49:46.799Z,1001.06
2023-03-16T09:50:49.334Z,1001.06
2023-03-16T09:51:46.738Z,1001.03
2023-03-16T09:52:46.785Z,1001.03
2023-03-16T09:53:47.067Z,1001.00
2023-03-16T09:54:46.704Z,1001.03
2023-03-16T09:55:46.684Z,1001.05
2023-03-16T09:56:46.680Z,1000.98
2023-03-16T09:57:46.679Z,1001.09
2023-03-16T09:58:46.696Z,1001.04
2023-03-16T09:59:46.653Z,1001.05
2023-03-16T10:00:46.707Z,1001.04
2023-03-16T10:01:46.611Z,1001.04
2023-03-16T10:02:46.626Z,1001.08
2023-03-16T10:03:46.643Z,1001.00
2023-03-16T10:04:46.628Z,1001.03
2023-03-16T10:05:46.603Z,1001.00
2023-03-16T10:06:46.566Z,1001.03
2023-03-16T10:07:46.563Z,1000.97
2023-03-16T10:08:46.561Z,1000.99
2023-03-16T10:09:46.547Z,1000.98
2023-03-16T10:10:46.540Z,1000.89
2023-03-16T10:11:46.504Z,1000.98
2023-03-16T10:12:46.537Z,1001.02
2023-03-16T10:13:46.495Z,1000.98
2023-03-16T10:14:46.534Z,1001.03
2023-03-16T10:15:46.454Z,1000.99
2023-03-16T10:16:46.548Z,1001.00
2023-03-16T10:17:46.445Z,1001.04
2023-03-16T10:18:46.426Z,1001.04
2023-03-16T10:19:46.418Z,1001.01
2023-03-16T10:20:46.420Z,1001.05
2023-03-16T10:21:46.490Z,1000.92
2023-03-16T10:22:46.387Z,1000.99
2023-03-16T10:23:46.364Z,1001.01
2023-03-16T10:24:46.361Z,1001.04
2023-03-16T10:25:46.388Z,1000.99
2023-03-16T10:26:46.331Z,1001.06
2023-03-16T10:27:46.363Z,1001.03
2023-03-16T10:28:46.358Z,1001.04
2023-03-16T10:29:46.296Z,1001.02
2023-03-16T10:30:46.415Z,1000.92
2023-03-16T10:31:46.335Z,1000.99
2023-03-16T10:32:46.294Z,1000.97
2023-03-16T10:33:46.285Z,1000.83
2023-03-16T10:34:46.245Z,1000.76
2023-03-16T10:35:46.292Z,1000.90
2023-03-16T10:36:46.286Z,1000.90
2023-03-16T10:37:46.193Z,1000.88
2023-03-16T10:38:46.200Z,1000.88
2023-03-16T10:39:46.194Z,1000.90
2023-03-16T10:40:46.157Z,1000.92
2023-03-16T10:41:46.145Z,1000.97
2023-03-16T10:42:46.167Z,1000.88
2023-03-16T10:43:46.140Z,1000.93
2023-03-16T10:44:46.136Z,1000.91
2023-03-16T10:45:46.153Z,1000.96
2023-03-16T10:46:46.214Z,1000.89
2023-03-16T10:47:46.099Z,1000.87
2023-03-16T10:48:46.080Z,1000.84
2023-03-16T10:49:46.052Z,1000.82
2023-03-16T10:50:46.112Z,1000.76
2023-03-16T10:51:46.044Z,1000.77
2023-03-16T10:52:46.075Z,1000.82
2023-03-16T10:53:46.044Z,1000.77
2023-03-16T10:54:46.003Z,1000.76
2023-03-16T10:55:46.000Z,1000.81
2023-03-16T10:56:46.039Z,1000.72
2023-03-16T10:57:45.976Z,1000.67
2023-03-16T10:58:45.974Z,1000.73
2023-03-16T10:59:45.961Z,1000.66
2023-03-16T11:00:45.955Z,1000.62
2023-03-16T11:01:45.965Z,1000.59
2023-03-16T11:02:45.954Z,1000.56
2023-03-16T11:03:45.906Z,1000.46
2023-03-16T11:04:45.941Z,1000.45
2023-03-16T11:05:45.924Z,1000.51
2023-03-16T11:06:45.879Z,1000.49
2023-03-16T11:07:45.978Z,1000.54
2023-03-16T11:08:45.875Z,1000.55
2023-03-16T11:09:45.865Z,1000.62
2023-03-16T11:10:55.260Z,1000.51
2023-03-16T11:11:46.850Z,1000.51
2023-03-16T11:12:45.862Z,1000.55
2023-03-16T11:13:45.811Z,1000.56
2023-03-16T11:14:45.788Z,1000.53
2023-03-16T11:15:45.814Z,1000.42
2023-03-16T11:16:45.813Z,1000.39
2023-03-16T11:17:45.779Z,1000.47
2023-03-16T11:18:45.762Z,1000.53
2023-03-16T11:19:47.343Z,1000.52
2023-03-16T11:20:45.725Z,1000.46
2023-03-16T11:21:45.734Z,1000.50
2023-03-16T11:22:45.703Z,1000.51
2023-03-16T11:23:45.682Z,1000.44
2023-03-16T11:24:45.721Z,1000.43
2023-03-16T11:25:45.684Z,1000.44
2023-03-16T11:26:45.681Z,1000.49
2023-03-16T11:27:45.635Z,1000.48
2023-03-16T11:28:45.624Z,1000.46
2023-03-16T11:29:45.606Z,1000.47
2023-03-16T11:30:45.654Z,1000.43
2023-03-16T11:31:45.606Z,1000.47
2023-03-16T11:32:45.701Z,1000.41
2023-03-16T11:33:45.581Z,1000.27
2023-03-16T11:34:45.576Z,1000.29
2023-03-16T11:35:58.123Z,1000.27
2023-03-16T11:36:46.560Z,1000.33
2023-03-16T11:37:45.535Z,1000.25
2023-03-16T11:38:45.511Z,1000.28
2023-03-16T11:39:45.520Z,1000.30
2023-03-16T11:40:45.490Z,1000.28
2023-03-16T11:41:45.542Z,1000.28
2023-03-16T11:42:45.478Z,1000.34
2023-03-16T11:43:45.449Z,1000.30
2023-03-16T11:44:45.522Z,1000.26
2023-03-16T11:45:45.515Z,1000.25
2023-03-16T11:46:45.436Z,1000.29
2023-03-16T11:47:45.446Z,1000.28
2023-03-16T11:48:45.399Z,1000.32
2023-03-16T11:49:45.389Z,1000.19
2023-03-16T11:50:45.373Z,1000.30
2023-03-16T11:51:45.399Z,1000.23
2023-03-16T11:52:45.336Z,1000.29
2023-03-16T11:53:45.347Z,1000.22
2023-03-16T11:54:45.329Z,1000.22
2023-03-16T11:55:45.318Z,1000.19
2023-03-16T11:56:45.296Z,1000.13
2023-03-16T11:57:45.310Z,1000.12
2023-03-16T11:58:45.338Z,1000.09
2023-03-16T11:59:52.012Z,1000.06
2023-03-16T12:00:46.240Z,999.96
2023-03-16T12:01:54.114Z,1000.05
2023-03-16T12:02:46.340Z,999.95
2023-03-16T12:03:45.236Z,999.96
2023-03-16T12:04:45.267Z,999.87
2023-03-16T12:05:45.989Z,999.91
2023-03-16T12:06:45.183Z,999.92
2023-03-16T12:07:45.193Z,999.90